sensor_id;sensor_type;location;lat;lon;timestamp;P1;durP1;ratioP1;P2;durP2;ratioP2
30874;SDS011;17581;43.222;27.924;2024-03-17T00:00:37;99.88;;;31.23;;
30874;SDS011;17581;43.222;27.924;2024-03-17T00:03:05;62.75;;;26.63;;
30874;SDS011;17581;43.222;27.924;2024-03-17T00:05:33;59.28;;;26.25;;
30874;SDS011;17581;43.222;27.924;2024-03-17T00:07:58;49.05;;;27.00;;
30874;SDS011;17581;43.222;27.924;2024-03-17T00:10:24;41.50;;;22.38;;
30874;SDS011;17581;43.222;27.924;2024-03-17T00:12:49;66.22;;;23.95;;
30874;SDS011;17581;43.222;27.924;2024-03-17T00:15:16;43.40;;;23.75;;
30874;SDS011;17581;43.222;27.924;2024-03-17T00:17:43;41.53;;;23.38;;
30874;SDS011;17581;43.222;27.924;2024-03-17T00:20:09;36.97;;;21.75;;
30874;SDS011;17581;43.222;27.924;2024-03-17T00:22:43;51.53;;;21.63;;
30874;SDS011;17581;43.222;27.924;2024-03-17T00:25:11;88.78;;;25.25;;
30874;SDS011;17581;43.222;27.924;2024-03-17T00:27:37;46.35;;;22.25;;
30874;SDS011;17581;43.222;27.924;2024-03-17T00:30:08;53.40;;;23.27;;
30874;SDS011;17581;43.222;27.924;2024-03-17T00:32:40;41.63;;;24.52;;
30874;SDS011;17581;43.222;27.924;2024-03-17T00:35:07;57.15;;;27.63;;
30874;SDS011;17581;43.222;27.924;2024-03-17T00:37:35;45.15;;;25.67;;
30874;SDS011;17581;43.222;27.924;2024-03-17T00:40:01;50.53;;;24.95;;
30874;SDS011;17581;43.222;27.924;2024-03-17T00:42:27;45.65;;;23.70;;
30874;SDS011;17581;43.222;27.924;2024-03-17T00:44:55;33.13;;;22.50;;
30874;SDS011;17581;43.222;27.924;2024-03-17T00:47:21;32.15;;;20.20;;
30874;SDS011;17581;43.222;27.924;2024-03-17T00:49:46;38.92;;;22.15;;
30874;SDS011;17581;43.222;27.924;2024-03-17T00:52:12;52.95;;;27.35;;
30874;SDS011;17581;43.222;27.924;2024-03-17T00:54:37;68.57;;;28.27;;
30874;SDS011;17581;43.222;27.924;2024-03-17T00:57:03;42.05;;;21.98;;
30874;SDS011;17581;43.222;27.924;2024-03-17T00:59:28;33.45;;;21.83;;
30874;SDS011;17581;43.222;27.924;2024-03-17T01:01:54;34.80;;;19.33;;
30874;SDS011;17581;43.222;27.924;2024-03-17T01:04:19;33.17;;;19.23;;
30874;SDS011;17581;43.222;27.924;2024-03-17T01:06:46;31.65;;;19.90;;
30874;SDS011;17581;43.222;27.924;2024-03-17T01:09:11;42.25;;;21.63;;
30874;SDS011;17581;43.222;27.924;2024-03-17T01:11:37;47.42;;;22.70;;
30874;SDS011;17581;43.222;27.924;2024-03-17T01:14:04;42.53;;;20.80;;
30874;SDS011;17581;43.222;27.924;2024-03-17T01:16:29;42.60;;;22.23;;
30874;SDS011;17581;43.222;27.924;2024-03-17T01:18:54;39.65;;;20.77;;
30874;SDS011;17581;43.222;27.924;2024-03-17T01:21:21;41.17;;;21.50;;
30874;SDS011;17581;43.222;27.924;2024-03-17T01:23:48;47.72;;;23.92;;
30874;SDS011;17581;43.222;27.924;2024-03-17T01:26:15;42.20;;;23.35;;
30874;SDS011;17581;43.222;27.924;2024-03-17T01:28:41;42.55;;;25.00;;
30874;SDS011;17581;43.222;27.924;2024-03-17T01:31:06;49.05;;;27.77;;
30874;SDS011;17581;43.222;27.924;2024-03-17T01:33:34;47.58;;;26.85;;
30874;SDS011;17581;43.222;27.924;2024-03-17T01:35:59;48.92;;;28.58;;
30874;SDS011;17581;43.222;27.924;2024-03-17T01:38:25;50.53;;;26.23;;
30874;SDS011;17581;43.222;27.924;2024-03-17T01:40:52;47.97;;;27.30;;
30874;SDS011;17581;43.222;27.924;2024-03-17T01:43:17;45.92;;;24.58;;
30874;SDS011;17581;43.222;27.924;2024-03-17T01:45:43;43.58;;;23.95;;
30874;SDS011;17581;43.222;27.924;2024-03-17T01:48:11;31.50;;;21.42;;
30874;SDS011;17581;43.222;27.924;2024-03-17T01:50:44;38.15;;;21.33;;
30874;SDS011;17581;43.222;27.924;2024-03-17T01:53:13;39.58;;;19.20;;
30874;SDS011;17581;43.222;27.924;2024-03-17T01:55:40;46.05;;;19.95;;
30874;SDS011;17581;43.222;27.924;2024-03-17T01:58:08;32.47;;;20.98;;
30874;SDS011;17581;43.222;27.924;2024-03-17T02:00:38;32.58;;;18.58;;
30874;SDS011;17581;43.222;27.924;2024-03-17T02:03:08;38.05;;;20.65;;
30874;SDS011;17581;43.222;27.924;2024-03-17T02:05:34;26.98;;;17.75;;
30874;SDS011;17581;43.222;27.924;2024-03-17T02:08:02;29.60;;;17.85;;
30874;SDS011;17581;43.222;27.924;2024-03-17T02:10:29;29.30;;;18.35;;
30874;SDS011;17581;43.222;27.924;2024-03-17T02:12:54;29.05;;;18.58;;
30874;SDS011;17581;43.222;27.924;2024-03-17T02:15:21;29.05;;;17.73;;
30874;SDS011;17581;43.222;27.924;2024-03-17T02:17:47;31.25;;;17.70;;
30874;SDS011;17581;43.222;27.924;2024-03-17T02:20:12;26.75;;;17.48;;
30874;SDS011;17581;43.222;27.924;2024-03-17T02:22:39;32.28;;;18.42;;
30874;SDS011;17581;43.222;27.924;2024-03-17T02:25:06;37.90;;;19.90;;
30874;SDS011;17581;43.222;27.924;2024-03-17T02:27:35;43.40;;;20.25;;
30874;SDS011;17581;43.222;27.924;2024-03-17T02:30:02;36.88;;;20.35;;
30874;SDS011;17581;43.222;27.924;2024-03-17T02:32:29;38.08;;;21.88;;
30874;SDS011;17581;43.222;27.924;2024-03-17T02:34:55;34.53;;;20.67;;
30874;SDS011;17581;43.222;27.924;2024-03-17T02:37:21;52.25;;;22.33;;
30874;SDS011;17581;43.222;27.924;2024-03-17T02:39:47;51.08;;;22.92;;
30874;SDS011;17581;43.222;27.924;2024-03-17T02:42:12;38.63;;;20.80;;
30874;SDS011;17581;43.222;27.924;2024-03-17T02:44:38;41.00;;;21.35;;
30874;SDS011;17581;43.222;27.924;2024-03-17T02:47:05;34.05;;;21.02;;
30874;SDS011;17581;43.222;27.924;2024-03-17T02:49:33;37.70;;;21.60;;
30874;SDS011;17581;43.222;27.924;2024-03-17T02:52:06;37.65;;;22.00;;
30874;SDS011;17581;43.222;27.924;2024-03-17T02:54:38;51.17;;;24.15;;
30874;SDS011;17581;43.222;27.924;2024-03-17T02:57:05;43.30;;;24.88;;
30874;SDS011;17581;43.222;27.924;2024-03-17T02:59:34;46.80;;;23.10;;
30874;SDS011;17581;43.222;27.924;2024-03-17T03:02:00;40.00;;;23.08;;
30874;SDS011;17581;43.222;27.924;2024-03-17T03:04:26;45.78;;;23.08;;
30874;SDS011;17581;43.222;27.924;2024-03-17T03:06:52;41.15;;;23.52;;
30874;SDS011;17581;43.222;27.924;2024-03-17T03:09:17;42.88;;;24.35;;
30874;SDS011;17581;43.222;27.924;2024-03-17T03:11:50;43.90;;;21.80;;
30874;SDS011;17581;43.222;27.924;2024-03-17T03:14:17;49.17;;;22.55;;
30874;SDS011;17581;43.222;27.924;2024-03-17T03:16:42;37.83;;;21.27;;
30874;SDS011;17581;43.222;27.924;2024-03-17T03:19:08;42.22;;;22.65;;
30874;SDS011;17581;43.222;27.924;2024-03-17T03:21:34;62.53;;;24.52;;
30874;SDS011;17581;43.222;27.924;2024-03-17T03:24:00;52.78;;;23.45;;
30874;SDS011;17581;43.222;27.924;2024-03-17T03:26:25;46.05;;;21.83;;
30874;SDS011;17581;43.222;27.924;2024-03-17T03:28:50;45.03;;;22.55;;
30874;SDS011;17581;43.222;27.924;2024-03-17T03:31:16;41.88;;;22.77;;
30874;SDS011;17581;43.222;27.924;2024-03-17T03:33:42;48.88;;;22.92;;
30874;SDS011;17581;43.222;27.924;2024-03-17T03:36:09;41.72;;;23.40;;
30874;SDS011;17581;43.222;27.924;2024-03-17T03:38:39;42.63;;;23.25;;
30874;SDS011;17581;43.222;27.924;2024-03-17T03:41:08;63.67;;;25.08;;
30874;SDS011;17581;43.222;27.924;2024-03-17T03:43:35;53.92;;;24.42;;
30874;SDS011;17581;43.222;27.924;2024-03-17T03:46:01;80.63;;;25.95;;
30874;SDS011;17581;43.222;27.924;2024-03-17T03:48:27;56.53;;;25.45;;
30874;SDS011;17581;43.222;27.924;2024-03-17T03:50:53;77.82;;;26.00;;
30874;SDS011;17581;43.222;27.924;2024-03-17T03:53:19;46.38;;;23.92;;
30874;SDS011;17581;43.222;27.924;2024-03-17T03:55:45;49.83;;;25.17;;
30874;SDS011;17581;43.222;27.924;2024-03-17T03:58:10;47.72;;;24.20;;
30874;SDS011;17581;43.222;27.924;2024-03-17T04:00:37;41.45;;;23.15;;
30874;SDS011;17581;43.222;27.924;2024-03-17T04:03:04;53.22;;;24.38;;
30874;SDS011;17581;43.222;27.924;2024-03-17T04:05:30;41.90;;;22.88;;
30874;SDS011;17581;43.222;27.924;2024-03-17T04:07:56;55.95;;;24.23;;
30874;SDS011;17581;43.222;27.924;2024-03-17T04:10:21;56.22;;;24.67;;
30874;SDS011;17581;43.222;27.924;2024-03-17T04:12:49;47.03;;;23.85;;
30874;SDS011;17581;43.222;27.924;2024-03-17T04:15:14;46.40;;;24.35;;
30874;SDS011;17581;43.222;27.924;2024-03-17T04:17:40;50.67;;;25.80;;
30874;SDS011;17581;43.222;27.924;2024-03-17T04:20:07;59.63;;;30.63;;
30874;SDS011;17581;43.222;27.924;2024-03-17T04:22:35;68.45;;;32.10;;
30874;SDS011;17581;43.222;27.924;2024-03-17T04:25:01;70.88;;;33.20;;
30874;SDS011;17581;43.222;27.924;2024-03-17T04:27:28;56.25;;;32.28;;
30874;SDS011;17581;43.222;27.924;2024-03-17T04:29:55;57.00;;;30.65;;
30874;SDS011;17581;43.222;27.924;2024-03-17T04:32:21;61.03;;;30.80;;
30874;SDS011;17581;43.222;27.924;2024-03-17T04:34:47;62.13;;;30.40;;
30874;SDS011;17581;43.222;27.924;2024-03-17T04:37:13;71.72;;;29.58;;
30874;SDS011;17581;43.222;27.924;2024-03-17T04:39:42;64.55;;;29.83;;
30874;SDS011;17581;43.222;27.924;2024-03-17T04:42:08;45.67;;;27.55;;
30874;SDS011;17581;43.222;27.924;2024-03-17T04:44:34;49.05;;;25.65;;
30874;SDS011;17581;43.222;27.924;2024-03-17T04:47:00;51.00;;;26.98;;
30874;SDS011;17581;43.222;27.924;2024-03-17T04:49:26;46.28;;;25.40;;
30874;SDS011;17581;43.222;27.924;2024-03-17T04:51:51;35.95;;;23.27;;
30874;SDS011;17581;43.222;27.924;2024-03-17T04:54:17;39.85;;;24.48;;
30874;SDS011;17581;43.222;27.924;2024-03-17T04:56:42;42.92;;;25.60;;
30874;SDS011;17581;43.222;27.924;2024-03-17T04:59:07;58.28;;;24.95;;
30874;SDS011;17581;43.222;27.924;2024-03-17T05:01:33;44.40;;;24.20;;
30874;SDS011;17581;43.222;27.924;2024-03-17T05:04:04;43.40;;;27.55;;
30874;SDS011;17581;43.222;27.924;2024-03-17T05:06:30;57.25;;;27.48;;
30874;SDS011;17581;43.222;27.924;2024-03-17T05:08:56;71.80;;;32.38;;
30874;SDS011;17581;43.222;27.924;2024-03-17T05:11:21;51.00;;;27.20;;
30874;SDS011;17581;43.222;27.924;2024-03-17T05:13:48;58.67;;;27.42;;
30874;SDS011;17581;43.222;27.924;2024-03-17T05:16:14;54.17;;;28.38;;
30874;SDS011;17581;43.222;27.924;2024-03-17T05:18:40;51.70;;;28.15;;
30874;SDS011;17581;43.222;27.924;2024-03-17T05:21:06;50.08;;;27.08;;
30874;SDS011;17581;43.222;27.924;2024-03-17T05:23:35;63.47;;;29.75;;
30874;SDS011;17581;43.222;27.924;2024-03-17T05:26:04;63.65;;;31.35;;
30874;SDS011;17581;43.222;27.924;2024-03-17T05:28:30;61.95;;;27.83;;
30874;SDS011;17581;43.222;27.924;2024-03-17T05:30:56;75.10;;;30.52;;
30874;SDS011;17581;43.222;27.924;2024-03-17T05:33:22;62.35;;;30.48;;
30874;SDS011;17581;43.222;27.924;2024-03-17T05:35:52;61.10;;;29.48;;
30874;SDS011;17581;43.222;27.924;2024-03-17T05:38:18;56.25;;;28.65;;
30874;SDS011;17581;43.222;27.924;2024-03-17T05:40:57;64.72;;;29.73;;
30874;SDS011;17581;43.222;27.924;2024-03-17T05:43:25;60.17;;;30.65;;
30874;SDS011;17581;43.222;27.924;2024-03-17T05:45:52;72.85;;;31.05;;
30874;SDS011;17581;43.222;27.924;2024-03-17T05:48:20;68.55;;;32.30;;
30874;SDS011;17581;43.222;27.924;2024-03-17T05:50:46;78.30;;;33.20;;
30874;SDS011;17581;43.222;27.924;2024-03-17T05:53:11;75.97;;;31.42;;
30874;SDS011;17581;43.222;27.924;2024-03-17T05:55:37;74.07;;;32.97;;
30874;SDS011;17581;43.222;27.924;2024-03-17T05:58:03;65.70;;;32.50;;
30874;SDS011;17581;43.222;27.924;2024-03-17T06:00:29;69.13;;;29.92;;
30874;SDS011;17581;43.222;27.924;2024-03-17T06:02:56;43.10;;;26.85;;
30874;SDS011;17581;43.222;27.924;2024-03-17T06:05:22;65.10;;;32.17;;
30874;SDS011;17581;43.222;27.924;2024-03-17T06:07:48;61.95;;;31.27;;
30874;SDS011;17581;43.222;27.924;2024-03-17T06:10:13;85.57;;;33.33;;
30874;SDS011;17581;43.222;27.924;2024-03-17T06:12:39;82.80;;;34.35;;
30874;SDS011;17581;43.222;27.924;2024-03-17T06:15:05;75.75;;;32.92;;
30874;SDS011;17581;43.222;27.924;2024-03-17T06:17:31;62.95;;;32.90;;
30874;SDS011;17581;43.222;27.924;2024-03-17T06:19:57;64.40;;;31.88;;
30874;SDS011;17581;43.222;27.924;2024-03-17T06:22:23;58.65;;;32.72;;
30874;SDS011;17581;43.222;27.924;2024-03-17T06:24:49;66.80;;;33.10;;
30874;SDS011;17581;43.222;27.924;2024-03-17T06:27:15;65.88;;;33.28;;
30874;SDS011;17581;43.222;27.924;2024-03-17T06:29:41;52.33;;;30.65;;
30874;SDS011;17581;43.222;27.924;2024-03-17T06:32:07;54.90;;;32.78;;
30874;SDS011;17581;43.222;27.924;2024-03-17T06:34:33;58.35;;;33.17;;
30874;SDS011;17581;43.222;27.924;2024-03-17T06:36:58;60.70;;;31.15;;
30874;SDS011;17581;43.222;27.924;2024-03-17T06:39:25;58.58;;;35.67;;
30874;SDS011;17581;43.222;27.924;2024-03-17T06:41:51;71.00;;;33.75;;
30874;SDS011;17581;43.222;27.924;2024-03-17T06:44:16;73.22;;;32.97;;
30874;SDS011;17581;43.222;27.924;2024-03-17T06:46:42;69.25;;;32.55;;
30874;SDS011;17581;43.222;27.924;2024-03-17T06:49:09;48.78;;;29.45;;
30874;SDS011;17581;43.222;27.924;2024-03-17T06:51:34;45.65;;;29.05;;
30874;SDS011;17581;43.222;27.924;2024-03-17T06:54:00;45.28;;;29.88;;
30874;SDS011;17581;43.222;27.924;2024-03-17T06:56:26;52.38;;;30.67;;
30874;SDS011;17581;43.222;27.924;2024-03-17T06:58:51;71.38;;;31.88;;
30874;SDS011;17581;43.222;27.924;2024-03-17T07:01:17;70.65;;;32.45;;
30874;SDS011;17581;43.222;27.924;2024-03-17T07:03:42;46.47;;;31.08;;
30874;SDS011;17581;43.222;27.924;2024-03-17T07:06:09;63.03;;;34.00;;
30874;SDS011;17581;43.222;27.924;2024-03-17T07:08:36;58.83;;;35.75;;
30874;SDS011;17581;43.222;27.924;2024-03-17T07:11:04;63.05;;;31.27;;
30874;SDS011;17581;43.222;27.924;2024-03-17T07:13:37;54.50;;;32.47;;
30874;SDS011;17581;43.222;27.924;2024-03-17T07:16:10;66.20;;;35.30;;
30874;SDS011;17581;43.222;27.924;2024-03-17T07:18:35;63.97;;;31.15;;
30874;SDS011;17581;43.222;27.924;2024-03-17T07:21:02;47.55;;;29.92;;
30874;SDS011;17581;43.222;27.924;2024-03-17T07:23:35;47.00;;;28.42;;
30874;SDS011;17581;43.222;27.924;2024-03-17T07:26:01;61.97;;;31.38;;
30874;SDS011;17581;43.222;27.924;2024-03-17T07:28:27;43.55;;;28.35;;
30874;SDS011;17581;43.222;27.924;2024-03-17T07:30:54;55.85;;;30.58;;
30874;SDS011;17581;43.222;27.924;2024-03-17T07:33:21;49.83;;;26.92;;
30874;SDS011;17581;43.222;27.924;2024-03-17T07:36:05;57.10;;;28.42;;
30874;SDS011;17581;43.222;27.924;2024-03-17T07:38:33;45.63;;;25.40;;
30874;SDS011;17581;43.222;27.924;2024-03-17T07:41:07;54.35;;;26.85;;
30874;SDS011;17581;43.222;27.924;2024-03-17T07:43:41;83.30;;;28.92;;
30874;SDS011;17581;43.222;27.924;2024-03-17T07:46:08;39.40;;;25.58;;
30874;SDS011;17581;43.222;27.924;2024-03-17T07:48:40;62.17;;;27.38;;
30874;SDS011;17581;43.222;27.924;2024-03-17T07:51:08;46.70;;;26.67;;
30874;SDS011;17581;43.222;27.924;2024-03-17T07:53:36;59.95;;;27.02;;
30874;SDS011;17581;43.222;27.924;2024-03-17T07:56:04;45.17;;;25.95;;
30874;SDS011;17581;43.222;27.924;2024-03-17T07:58:30;46.45;;;28.08;;
30874;SDS011;17581;43.222;27.924;2024-03-17T08:01:01;49.22;;;27.10;;
30874;SDS011;17581;43.222;27.924;2024-03-17T08:03:28;47.15;;;27.58;;
30874;SDS011;17581;43.222;27.924;2024-03-17T08:05:55;53.03;;;26.00;;
30874;SDS011;17581;43.222;27.924;2024-03-17T08:08:20;40.15;;;25.92;;
30874;SDS011;17581;43.222;27.924;2024-03-17T08:10:46;36.50;;;25.33;;
30874;SDS011;17581;43.222;27.924;2024-03-17T08:13:13;46.75;;;27.35;;
30874;SDS011;17581;43.222;27.924;2024-03-17T08:15:41;38.90;;;24.98;;
30874;SDS011;17581;43.222;27.924;2024-03-17T08:18:08;49.38;;;24.17;;
30874;SDS011;17581;43.222;27.924;2024-03-17T08:20:37;56.33;;;24.48;;
30874;SDS011;17581;43.222;27.924;2024-03-17T08:23:04;57.75;;;25.38;;
30874;SDS011;17581;43.222;27.924;2024-03-17T08:25:31;37.08;;;24.85;;
30874;SDS011;17581;43.222;27.924;2024-03-17T08:28:00;42.83;;;25.20;;
30874;SDS011;17581;43.222;27.924;2024-03-17T08:30:28;42.28;;;25.13;;
30874;SDS011;17581;43.222;27.924;2024-03-17T08:35:27;40.83;;;23.50;;
30874;SDS011;17581;43.222;27.924;2024-03-17T08:37:53;48.50;;;23.65;;
30874;SDS011;17581;43.222;27.924;2024-03-17T08:40:21;36.88;;;23.50;;
30874;SDS011;17581;43.222;27.924;2024-03-17T08:42:48;38.50;;;23.98;;
30874;SDS011;17581;43.222;27.924;2024-03-17T08:45:14;50.45;;;25.77;;
30874;SDS011;17581;43.222;27.924;2024-03-17T08:47:40;53.22;;;26.60;;
30874;SDS011;17581;43.222;27.924;2024-03-17T08:50:07;42.55;;;25.35;;
30874;SDS011;17581;43.222;27.924;2024-03-17T08:52:34;43.22;;;25.80;;
30874;SDS011;17581;43.222;27.924;2024-03-17T08:55:00;37.55;;;24.67;;
30874;SDS011;17581;43.222;27.924;2024-03-17T08:57:28;41.72;;;26.30;;
30874;SDS011;17581;43.222;27.924;2024-03-17T08:59:53;51.33;;;26.60;;
30874;SDS011;17581;43.222;27.924;2024-03-17T09:02:19;57.85;;;25.10;;
30874;SDS011;17581;43.222;27.924;2024-03-17T09:04:46;32.20;;;22.92;;
30874;SDS011;17581;43.222;27.924;2024-03-17T09:07:12;47.55;;;26.15;;
30874;SDS011;17581;43.222;27.924;2024-03-17T09:09:40;52.63;;;26.92;;
30874;SDS011;17581;43.222;27.924;2024-03-17T09:12:09;60.95;;;33.63;;
30874;SDS011;17581;43.222;27.924;2024-03-17T09:14:35;45.47;;;23.98;;
30874;SDS011;17581;43.222;27.924;2024-03-17T09:17:03;67.78;;;27.33;;
30874;SDS011;17581;43.222;27.924;2024-03-17T09:19:40;52.80;;;29.20;;
30874;SDS011;17581;43.222;27.924;2024-03-17T09:22:06;40.45;;;25.65;;
30874;SDS011;17581;43.222;27.924;2024-03-17T09:24:31;43.95;;;25.15;;
30874;SDS011;17581;43.222;27.924;2024-03-17T09:26:58;45.30;;;25.00;;
30874;SDS011;17581;43.222;27.924;2024-03-17T09:29:25;47.35;;;26.92;;
30874;SDS011;17581;43.222;27.924;2024-03-17T09:31:50;41.70;;;26.45;;
30874;SDS011;17581;43.222;27.924;2024-03-17T09:34:16;50.63;;;29.10;;
30874;SDS011;17581;43.222;27.924;2024-03-17T09:36:42;54.45;;;28.02;;
30874;SDS011;17581;43.222;27.924;2024-03-17T09:39:09;58.55;;;28.73;;
30874;SDS011;17581;43.222;27.924;2024-03-17T09:41:36;48.40;;;28.35;;
30874;SDS011;17581;43.222;27.924;2024-03-17T09:44:03;47.05;;;28.13;;
30874;SDS011;17581;43.222;27.924;2024-03-17T09:46:34;54.78;;;29.60;;
30874;SDS011;17581;43.222;27.924;2024-03-17T09:48:59;48.95;;;30.00;;
30874;SDS011;17581;43.222;27.924;2024-03-17T09:51:25;40.22;;;25.85;;
30874;SDS011;17581;43.222;27.924;2024-03-17T09:53:51;57.40;;;28.17;;
30874;SDS011;17581;43.222;27.924;2024-03-17T09:56:18;44.22;;;28.48;;
30874;SDS011;17581;43.222;27.924;2024-03-17T09:58:48;45.10;;;27.60;;
30874;SDS011;17581;43.222;27.924;2024-03-17T10:01:15;40.13;;;25.08;;
30874;SDS011;17581;43.222;27.924;2024-03-17T10:03:45;62.38;;;28.70;;
30874;SDS011;17581;43.222;27.924;2024-03-17T10:06:15;40.78;;;26.42;;
30874;SDS011;17581;43.222;27.924;2024-03-17T10:11:11;43.78;;;23.65;;
30874;SDS011;17581;43.222;27.924;2024-03-17T10:13:40;42.95;;;26.45;;
30874;SDS011;17581;43.222;27.924;2024-03-17T10:16:05;39.97;;;24.48;;
30874;SDS011;17581;43.222;27.924;2024-03-17T10:18:31;47.60;;;26.55;;
30874;SDS011;17581;43.222;27.924;2024-03-17T10:20:58;51.17;;;28.58;;
30874;SDS011;17581;43.222;27.924;2024-03-17T10:23:27;36.45;;;24.98;;
30874;SDS011;17581;43.222;27.924;2024-03-17T10:25:53;54.03;;;25.48;;
30874;SDS011;17581;43.222;27.924;2024-03-17T10:28:18;38.35;;;25.95;;
30874;SDS011;17581;43.222;27.924;2024-03-17T10:30:59;48.15;;;25.08;;
30874;SDS011;17581;43.222;27.924;2024-03-17T10:33:26;43.65;;;25.25;;
30874;SDS011;17581;43.222;27.924;2024-03-17T10:35:59;47.40;;;25.75;;
30874;SDS011;17581;43.222;27.924;2024-03-17T10:38:26;55.97;;;27.70;;
30874;SDS011;17581;43.222;27.924;2024-03-17T10:40:55;37.88;;;25.02;;
30874;SDS011;17581;43.222;27.924;2024-03-17T10:43:22;41.05;;;25.85;;
30874;SDS011;17581;43.222;27.924;2024-03-17T10:45:53;58.67;;;25.73;;
30874;SDS011;17581;43.222;27.924;2024-03-17T10:48:19;45.63;;;24.90;;
30874;SDS011;17581;43.222;27.924;2024-03-17T10:50:49;43.10;;;25.85;;
30874;SDS011;17581;43.222;27.924;2024-03-17T10:53:19;40.22;;;26.00;;
30874;SDS011;17581;43.222;27.924;2024-03-17T10:55:55;53.38;;;27.88;;
30874;SDS011;17581;43.222;27.924;2024-03-17T10:58:35;43.00;;;24.80;;
30874;SDS011;17581;43.222;27.924;2024-03-17T11:01:03;40.83;;;26.92;;
30874;SDS011;17581;43.222;27.924;2024-03-17T11:03:32;42.85;;;28.13;;
30874;SDS011;17581;43.222;27.924;2024-03-17T11:06:00;38.80;;;25.55;;
30874;SDS011;17581;43.222;27.924;2024-03-17T11:08:31;38.92;;;26.05;;
30874;SDS011;17581;43.222;27.924;2024-03-17T11:10:59;43.97;;;26.25;;
30874;SDS011;17581;43.222;27.924;2024-03-17T11:13:26;37.70;;;24.50;;
30874;SDS011;17581;43.222;27.924;2024-03-17T11:15:53;36.03;;;22.58;;
30874;SDS011;17581;43.222;27.924;2024-03-17T11:21:02;39.58;;;25.08;;
30874;SDS011;17581;43.222;27.924;2024-03-17T11:23:37;35.35;;;22.27;;
30874;SDS011;17581;43.222;27.924;2024-03-17T11:26:03;38.92;;;23.75;;
30874;SDS011;17581;43.222;27.924;2024-03-17T11:34:06;28.77;;;19.52;;
30874;SDS011;17581;43.222;27.924;2024-03-17T11:36:54;32.15;;;22.27;;
30874;SDS011;17581;43.222;27.924;2024-03-17T11:39:20;43.63;;;24.23;;
30874;SDS011;17581;43.222;27.924;2024-03-17T11:41:51;47.67;;;24.08;;
30874;SDS011;17581;43.222;27.924;2024-03-17T11:49:26;30.08;;;19.48;;
30874;SDS011;17581;43.222;27.924;2024-03-17T11:52:04;34.42;;;22.80;;
30874;SDS011;17581;43.222;27.924;2024-03-17T11:54:37;48.00;;;23.38;;
30874;SDS011;17581;43.222;27.924;2024-03-17T11:57:04;40.38;;;23.05;;
30874;SDS011;17581;43.222;27.924;2024-03-17T11:59:47;35.10;;;22.55;;
30874;SDS011;17581;43.222;27.924;2024-03-17T12:02:17;36.90;;;24.13;;
30874;SDS011;17581;43.222;27.924;2024-03-17T12:04:53;38.83;;;22.13;;
30874;SDS011;17581;43.222;27.924;2024-03-17T12:07:22;42.78;;;23.40;;
30874;SDS011;17581;43.222;27.924;2024-03-17T12:09:53;54.58;;;25.27;;
30874;SDS011;17581;43.222;27.924;2024-03-17T12:12:23;36.17;;;22.50;;
30874;SDS011;17581;43.222;27.924;2024-03-17T12:14:56;45.53;;;24.48;;
30874;SDS011;17581;43.222;27.924;2024-03-17T12:17:22;33.78;;;20.52;;
30874;SDS011;17581;43.222;27.924;2024-03-17T12:19:51;38.95;;;22.83;;
30874;SDS011;17581;43.222;27.924;2024-03-17T12:22:18;53.10;;;24.75;;
30874;SDS011;17581;43.222;27.924;2024-03-17T12:24:51;34.72;;;24.08;;
30874;SDS011;17581;43.222;27.924;2024-03-17T12:27:19;47.05;;;23.52;;
30874;SDS011;17581;43.222;27.924;2024-03-17T12:29:47;34.67;;;22.08;;
30874;SDS011;17581;43.222;27.924;2024-03-17T12:32:18;31.35;;;21.65;;
30874;SDS011;17581;43.222;27.924;2024-03-17T12:34:46;49.25;;;27.90;;
30874;SDS011;17581;43.222;27.924;2024-03-17T12:37:16;32.00;;;22.65;;
30874;SDS011;17581;43.222;27.924;2024-03-17T12:39:46;84.70;;;24.77;;
30874;SDS011;17581;43.222;27.924;2024-03-17T12:42:30;37.75;;;23.80;;
30874;SDS011;17581;43.222;27.924;2024-03-17T12:44:58;31.15;;;21.10;;
30874;SDS011;17581;43.222;27.924;2024-03-17T12:47:26;31.00;;;22.98;;
30874;SDS011;17581;43.222;27.924;2024-03-17T12:57:50;31.80;;;22.20;;
30874;SDS011;17581;43.222;27.924;2024-03-17T13:00:37;56.17;;;23.80;;
30874;SDS011;17581;43.222;27.924;2024-03-17T13:03:05;35.55;;;23.30;;
30874;SDS011;17581;43.222;27.924;2024-03-17T13:05:34;32.60;;;23.00;;
30874;SDS011;17581;43.222;27.924;2024-03-17T13:08:02;44.03;;;22.35;;
30874;SDS011;17581;43.222;27.924;2024-03-17T13:10:28;37.03;;;23.95;;
30874;SDS011;17581;43.222;27.924;2024-03-17T13:12:58;32.90;;;20.88;;
30874;SDS011;17581;43.222;27.924;2024-03-17T13:15:28;57.10;;;26.17;;
30874;SDS011;17581;43.222;27.924;2024-03-17T13:17:59;33.75;;;22.75;;
30874;SDS011;17581;43.222;27.924;2024-03-17T13:20:26;34.08;;;23.65;;
30874;SDS011;17581;43.222;27.924;2024-03-17T13:22:52;35.53;;;24.25;;
30874;SDS011;17581;43.222;27.924;2024-03-17T13:25:19;41.17;;;24.85;;
30874;SDS011;17581;43.222;27.924;2024-03-17T13:27:49;42.42;;;23.90;;
30874;SDS011;17581;43.222;27.924;2024-03-17T13:30:16;36.50;;;23.40;;
30874;SDS011;17581;43.222;27.924;2024-03-17T13:32:43;36.60;;;24.77;;
30874;SDS011;17581;43.222;27.924;2024-03-17T13:35:19;42.45;;;23.95;;
30874;SDS011;17581;43.222;27.924;2024-03-17T13:37:45;48.20;;;28.20;;
30874;SDS011;17581;43.222;27.924;2024-03-17T13:40:12;36.22;;;24.35;;
30874;SDS011;17581;43.222;27.924;2024-03-17T13:42:43;34.45;;;22.63;;
30874;SDS011;17581;43.222;27.924;2024-03-17T13:45:14;41.65;;;24.58;;
30874;SDS011;17581;43.222;27.924;2024-03-17T13:47:41;37.38;;;24.30;;
30874;SDS011;17581;43.222;27.924;2024-03-17T13:50:11;58.65;;;27.70;;
30874;SDS011;17581;43.222;27.924;2024-03-17T13:52:40;39.72;;;24.25;;
30874;SDS011;17581;43.222;27.924;2024-03-17T13:55:08;41.85;;;25.48;;
30874;SDS011;17581;43.222;27.924;2024-03-17T13:57:39;45.95;;;25.63;;
30874;SDS011;17581;43.222;27.924;2024-03-17T14:00:05;42.13;;;24.77;;
30874;SDS011;17581;43.222;27.924;2024-03-17T14:02:32;45.45;;;26.27;;
30874;SDS011;17581;43.222;27.924;2024-03-17T14:04:58;44.97;;;26.58;;
30874;SDS011;17581;43.222;27.924;2024-03-17T14:07:24;35.42;;;26.13;;
30874;SDS011;17581;43.222;27.924;2024-03-17T14:09:51;42.97;;;26.63;;
30874;SDS011;17581;43.222;27.924;2024-03-17T14:12:16;51.85;;;28.83;;
30874;SDS011;17581;43.222;27.924;2024-03-17T14:14:42;43.53;;;27.40;;
30874;SDS011;17581;43.222;27.924;2024-03-17T14:17:08;45.17;;;27.17;;
30874;SDS011;17581;43.222;27.924;2024-03-17T14:19:34;41.53;;;25.60;;
30874;SDS011;17581;43.222;27.924;2024-03-17T14:22:01;49.28;;;26.45;;
30874;SDS011;17581;43.222;27.924;2024-03-17T14:24:29;37.80;;;25.42;;
30874;SDS011;17581;43.222;27.924;2024-03-17T14:26:55;55.55;;;29.27;;
30874;SDS011;17581;43.222;27.924;2024-03-17T14:29:20;73.97;;;29.40;;
30874;SDS011;17581;43.222;27.924;2024-03-17T14:31:46;39.88;;;26.25;;
30874;SDS011;17581;43.222;27.924;2024-03-17T14:34:11;41.38;;;28.10;;
30874;SDS011;17581;43.222;27.924;2024-03-17T14:36:37;50.13;;;27.67;;